Al Mismiyah, Syria
Current Conditions -  °F | °C
As of 3:00 PM on Sunday 25 Jan 2015 (Local Time) from OSDI Reporting Station
Clear Clear  
Wind Chill: 63°   Ceiling: Unl
Heat Index: 63°   Visibility: 6mi
Dew Point: 39°   Wind: 2mph
Humidity: 42%   Direction: 70°ENE
Pressure: 30.03"   Gusts: NA
Location:  33.13°N, 36.38°E
Report Text: OSDI 251200Z 07002KT CAVOK 17/04 Q1017
Loading
Personal Weather Stations






























Interactive Weather Map New forecast layout! Learn more

10-Day Weather Forecast

Advertisements
Track Severe Weather on mobile